Anadyr', Russia
Current Conditions -  °F | °C
As of 2:00 AM on Thursday 29 Jan 2015 (Local Time) from UHMA Reporting Station
Clear Clear  
Wind Chill: -24°   Ceiling: Unl
Heat Index: -24°   Visibility: 6mi
Dew Point: -29°   Wind: 0mph
Humidity: 76%   Direction: NA
Pressure: 30.53"   Gusts: NA
Location:  64.75°N, 177.48°E
Report Text: UHMA 281400Z 00000MPS 9999 SKC M31/M34 Q1034 RMK QFE772/1029
Loading
Personal Weather Stations






























Interactive Weather Map New forecast layout! Learn more

10-Day Weather Forecast

Advertisements
Track Severe Weather on mobile